Terminal Aerodrome Forecast
Issued by NWS

Home | Current Version | Previous Version | Text Only | Print | Product List | Glossary On
Versions: 1 2 3 4 5 6 7 8 9 10 11 12 13 14 15 16 17 18 19
000
FTUS43 KSGF 240520
TAFJLN
TAF
KJLN 240520Z 2406/2506 18009KT P6SM OVC150
     FM240700 19012KT P6SM SCT250 WS020/20040KT
     FM241300 21014KT P6SM BKN200
     FM241600 21015KT P6SM SCT050
     FM250100 20005KT P6SM SKC=

USA.gov is the U.S. government's official web portal to all federal, state and local government web resources and services.